Time,TemperatureF,DewpointF,PressureIn,WindDirection,WindDirectionDegrees,WindSpeedMPH,WindSpeedGustMPH,Humidity,HourlyPrecipIn,Conditions,Clouds,dailyrainin,SoftwareType,DateUTC
2013-03-20 00:04:00,44.3,38.8,29.55,SE,135,2.7,2.7,81,0.04,,,0.00,WUHU216HW,2013-03-20 07:04:00,
2013-03-20 00:59:00,44.6,39.5,29.53,SW,225,0.9,0.9,82,0.10,,,0.00,WUHU216HW,2013-03-20 07:59:00,
2013-03-20 01:05:00,44.6,39.5,29.53,SW,225,0.9,0.9,82,0.10,,,0.00,WUHU216HW,2013-03-20 08:05:00,
2013-03-20 01:59:00,44.6,40.2,29.50,ESE,113,3.4,3.4,84,0.09,,,0.11,WUHU216HW,2013-03-20 08:59:00,
2013-03-20 02:05:00,44.6,40.2,29.50,ESE,113,3.4,3.4,84,0.09,,,0.11,WUHU216HW,2013-03-20 09:05:00,
2013-03-20 02:59:00,45.0,40.8,29.45,East,90,0.4,0.4,85,0.02,,,0.20,WUHU216HW,2013-03-20 09:59:00,
2013-03-20 03:05:00,45.0,40.8,29.45,East,90,0.4,0.4,85,0.02,,,0.20,WUHU216HW,2013-03-20 10:05:00,
2013-03-20 03:59:00,45.4,41.1,29.42,WSW,248,0.9,0.9,85,0.00,,,0.22,WUHU216HW,2013-03-20 10:59:00,
2013-03-20 04:04:00,45.4,41.1,29.42,WSW,248,0.9,0.9,85,0.00,,,0.22,WUHU216HW,2013-03-20 11:04:00,
2013-03-20 04:59:00,45.7,41.8,29.40,South,180,0.0,0.0,86,0.04,,,0.22,WUHU216HW,2013-03-20 11:59:00,
2013-03-20 05:04:00,45.7,41.8,29.40,South,180,0.0,0.0,86,0.04,,,0.22,WUHU216HW,2013-03-20 12:04:00,
2013-03-20 05:59:00,45.7,42.1,29.38,SSW,203,0.4,0.4,87,0.09,,,0.26,WUHU216HW,2013-03-20 12:59:00,
2013-03-20 06:04:00,45.7,42.1,29.38,SSW,203,0.4,0.4,87,0.09,,,0.26,WUHU216HW,2013-03-20 13:04:00,
2013-03-20 06:59:00,45.7,42.1,29.37,ESE,113,3.1,3.1,87,0.07,,,0.35,WUHU216HW,2013-03-20 13:59:00,
2013-03-20 07:05:00,45.7,42.1,29.37,ESE,113,3.1,3.1,87,0.07,,,0.35,WUHU216HW,2013-03-20 14:05:00,
2013-03-20 07:59:00,46.1,42.8,29.36,SSW,203,1.1,1.1,88,0.05,,,0.48,WUHU216HW,2013-03-20 14:59:00,
2013-03-20 08:04:00,46.1,42.8,29.37,SSW,203,1.8,2.5,88,0.04,,,0.48,WUHU216HW,2013-03-20 15:04:00,
2013-03-20 08:10:00,46.1,42.8,29.37,SSE,158,2.9,2.9,88,0.04,,,0.48,WUHU216HW,2013-03-20 15:10:00,
2013-03-20 08:15:00,46.3,42.9,29.37,ESE,113,3.1,4.7,88,0.04,,,0.48,WUHU216HW,2013-03-20 15:15:00,
2013-03-20 08:20:00,46.4,43.1,29.37,West,270,0.4,4.7,88,0.04,,,0.48,WUHU216HW,2013-03-20 15:20:00,
2013-03-20 08:25:00,46.4,43.1,29.37,ESE,113,0.4,3.1,88,0.03,,,0.48,WUHU216HW,2013-03-20 15:25:00,
2013-03-20 08:30:00,46.6,43.3,29.37,South,180,0.2,5.4,88,0.04,,,0.49,WUHU216HW,2013-03-20 15:30:00,
2013-03-20 08:35:00,47.0,44.0,29.37,SE,135,4.0,6.5,89,0.04,,,0.49,WUHU216HW,2013-03-20 15:35:00,
2013-03-20 08:40:00,47.5,44.5,29.37,SSE,158,2.0,6.9,89,0.03,,,0.49,WUHU216HW,2013-03-20 15:40:00,
2013-03-20 08:45:00,47.9,45.2,29.37,SSE,158,6.0,6.9,90,0.03,,,0.50,WUHU216HW,2013-03-20 15:45:00,
2013-03-20 08:50:00,48.2,45.5,29.37,SSE,158,4.7,6.0,90,0.03,,,0.50,WUHU216HW,2013-03-20 15:50:00,
2013-03-20 08:55:00,48.6,45.9,29.37,SSE,158,1.3,8.7,90,0.03,,,0.51,WUHU216HW,2013-03-20 15:55:00,
2013-03-20 09:00:00,48.8,45.7,29.36,South,180,5.4,8.7,89,0.03,,,0.51,WUHU216HW,2013-03-20 16:00:00,
2013-03-20 09:05:00,49.1,46.1,29.36,SE,135,0.4,5.4,89,0.03,,,0.51,WUHU216HW,2013-03-20 16:05:00,
2013-03-20 09:10:00,49.3,46.2,29.36,SE,135,1.8,8.3,89,0.03,,,0.51,WUHU216HW,2013-03-20 16:10:00,
2013-03-20 09:15:00,49.7,46.5,29.37,SE,135,6.9,8.3,89,0.03,,,0.51,WUHU216HW,2013-03-20 16:15:00,
2013-03-20 09:20:00,49.7,46.3,29.37,South,180,6.3,11.4,88,0.03,,,0.51,WUHU216HW,2013-03-20 16:20:00,
2013-03-20 09:26:00,50.0,46.5,29.37,ESE,113,5.4,11.4,88,0.02,,,0.51,WUHU216HW,2013-03-20 16:26:00,
2013-03-20 09:31:00,50.0,46.5,29.37,SSW,203,1.8,8.1,88,0.02,,,0.51,WUHU216HW,2013-03-20 16:31:00,
2013-03-20 09:36:00,50.0,46.5,29.38,SE,135,1.6,8.5,88,0.03,,,0.52,WUHU216HW,2013-03-20 16:36:00,
2013-03-20 09:41:00,50.0,46.5,29.38,South,180,3.8,10.5,88,0.03,,,0.52,WUHU216HW,2013-03-20 16:41:00,
2013-03-20 09:46:00,50.4,46.9,29.39,SE,135,4.7,13.2,88,0.02,,,0.52,WUHU216HW,2013-03-20 16:46:00,
2013-03-20 09:52:00,50.4,46.9,29.39,SSW,203,6.0,14.3,88,0.01,,,0.52,WUHU216HW,2013-03-20 16:52:00,
2013-03-20 09:57:00,50.8,47.3,29.40,SSW,203,4.5,14.3,88,0.01,,,0.52,WUHU216HW,2013-03-20 16:57:00,
2013-03-20 10:02:00,50.9,47.4,29.40,South,180,8.3,13.9,88,0.01,,,0.52,WUHU216HW,2013-03-20 17:02:00,
2013-03-20 10:07:00,50.8,46.6,29.42,SSE,158,5.1,13.9,86,0.01,,,0.52,WUHU216HW,2013-03-20 17:07:00,
2013-03-20 10:12:00,50.8,46.6,29.42,WSW,248,7.6,12.1,86,0.01,,,0.52,WUHU216HW,2013-03-20 17:12:00,
2013-03-20 10:17:00,50.9,47.2,29.42,SE,135,5.1,12.1,87,0.01,,,0.52,WUHU216HW,2013-03-20 17:17:00,
2013-03-20 10:22:00,51.7,47.5,29.43,SSW,203,7.8,14.1,86,0.01,,,0.52,WUHU216HW,2013-03-20 17:22:00,
2013-03-20 10:27:00,52.0,47.4,29.44,SSE,158,13.2,14.5,84,0.01,,,0.52,WUHU216HW,2013-03-20 17:27:00,
2013-03-20 10:32:00,52.4,47.3,29.45,South,180,2.9,14.5,83,0.00,,,0.52,WUHU216HW,2013-03-20 17:32:00,
2013-03-20 10:37:00,52.7,47.4,29.45,SE,135,5.4,13.2,82,0.00,,,0.52,WUHU216HW,2013-03-20 17:37:00,
2013-03-20 10:42:00,53.1,47.8,29.45,South,180,10.3,11.4,82,0.00,,,0.52,WUHU216HW,2013-03-20 17:42:00,
2013-03-20 10:47:00,53.6,48.0,29.46,SSE,158,4.5,10.3,81,0.00,,,0.52,WUHU216HW,2013-03-20 17:47:00,
2013-03-20 10:53:00,54.2,48.2,29.47,SE,135,6.0,11.0,80,0.00,,,0.52,WUHU216HW,2013-03-20 17:53:00,
2013-03-20 10:58:00,54.5,48.2,29.47,SSE,158,9.4,11.0,79,0.00,,,0.52,WUHU216HW,2013-03-20 17:58:00,
2013-03-20 11:03:00,54.9,48.2,29.48,SSW,203,6.3,11.6,78,0.00,,,0.52,WUHU216HW,2013-03-20 18:03:00,
2013-03-20 11:08:00,55.3,48.5,29.48,ESE,113,4.3,12.3,78,0.00,,,0.52,WUHU216HW,2013-03-20 18:08:00,
2013-03-20 11:13:00,55.8,49.0,29.49,SSE,158,2.7,12.3,78,0.00,,,0.52,WUHU216HW,2013-03-20 18:13:00,
2013-03-20 11:18:00,55.8,48.0,29.49,South,180,8.7,12.8,75,0.00,,,0.52,WUHU216HW,2013-03-20 18:18:00,
2013-03-20 11:23:00,55.1,47.3,29.50,SW,225,3.8,12.8,75,0.00,,,0.52,WUHU216HW,2013-03-20 18:23:00,
2013-03-20 11:28:00,54.4,46.6,29.50,WSW,248,13.6,13.6,75,0.00,,,0.52,WUHU216HW,2013-03-20 18:28:00,
2013-03-20 11:33:00,54.0,46.3,29.51,SE,135,3.4,15.0,75,0.00,,,0.52,WUHU216HW,2013-03-20 18:33:00,
2013-03-20 11:38:00,54.2,46.5,29.51,SSE,158,5.6,15.0,75,0.00,,,0.52,WUHU216HW,2013-03-20 18:38:00,
2013-03-20 11:43:00,54.4,46.6,29.52,South,180,8.5,12.1,75,0.00,,,0.52,WUHU216HW,2013-03-20 18:43:00,
2013-03-20 11:48:00,54.5,46.8,29.52,SE,135,9.4,12.5,75,0.00,,,0.52,WUHU216HW,2013-03-20 18:48:00,
2013-03-20 11:53:00,54.5,46.5,29.52,NNW,338,2.9,12.5,74,0.00,,,0.52,WUHU216HW,2013-03-20 18:53:00,
2013-03-20 11:58:00,54.9,46.7,29.52,SSE,158,8.9,11.2,74,0.00,,,0.52,WUHU216HW,2013-03-20 18:58:00,
2013-03-20 12:03:00,54.9,46.5,29.53,ESE,113,11.0,13.9,73,0.00,,,0.52,WUHU216HW,2013-03-20 19:03:00,
2013-03-20 12:08:00,54.9,46.5,29.52,SE,135,6.5,14.5,73,0.00,,,0.52,WUHU216HW,2013-03-20 19:08:00,
2013-03-20 12:13:00,55.1,46.6,29.53,SSE,158,9.6,14.5,73,0.00,,,0.52,WUHU216HW,2013-03-20 19:13:00,
2013-03-20 12:18:00,55.4,46.3,29.54,SSW,203,5.4,18.1,71,0.00,,,0.52,WUHU216HW,2013-03-20 19:18:00,
2013-03-20 12:23:00,55.3,46.1,29.54,South,180,5.4,18.1,71,0.00,,,0.52,WUHU216HW,2013-03-20 19:23:00,
2013-03-20 12:28:00,54.7,45.2,29.55,SSW,203,4.7,13.6,70,0.00,,,0.52,WUHU216HW,2013-03-20 19:28:00,
2013-03-20 12:34:00,54.4,45.2,29.55,SE,135,2.9,11.4,71,0.00,,,0.52,WUHU216HW,2013-03-20 19:34:00,
2013-03-20 12:39:00,54.0,44.8,29.55,SE,135,5.4,8.5,71,0.00,,,0.52,WUHU216HW,2013-03-20 19:39:00,
2013-03-20 12:44:00,53.8,44.7,29.56,SSE,158,6.3,7.6,71,0.00,,,0.52,WUHU216HW,2013-03-20 19:44:00,
2013-03-20 12:49:00,53.1,44.0,29.56,ESE,113,4.0,13.0,71,0.02,,,0.54,WUHU216HW,2013-03-20 19:49:00,
2013-03-20 12:54:00,51.5,42.9,29.56,SSE,158,4.0,13.0,72,0.03,,,0.55,WUHU216HW,2013-03-20 19:54:00,
2013-03-20 12:59:00,50.2,41.9,29.57,SE,135,6.3,10.5,73,0.03,,,0.55,WUHU216HW,2013-03-20 19:59:00,
2013-03-20 13:04:00,49.5,41.9,29.57,South,180,3.1,8.9,75,0.04,,,0.56,WUHU216HW,2013-03-20 20:04:00,
2013-03-20 13:09:00,49.1,41.9,29.58,SSW,203,4.0,12.8,76,0.05,,,0.58,WUHU216HW,2013-03-20 20:09:00,
2013-03-20 13:14:00,48.6,41.3,29.57,SSE,158,3.4,12.8,76,0.05,,,0.58,WUHU216HW,2013-03-20 20:14:00,
2013-03-20 13:19:00,48.6,41.9,29.58,South,180,3.4,9.6,78,0.05,,,0.58,WUHU216HW,2013-03-20 20:19:00,
2013-03-20 13:24:00,49.1,43.2,29.58,WSW,248,6.5,9.6,80,0.05,,,0.58,WUHU216HW,2013-03-20 20:24:00,
2013-03-20 13:29:00,50.0,44.1,29.57,SW,225,2.2,11.6,80,0.05,,,0.58,WUHU216HW,2013-03-20 20:29:00,
2013-03-20 13:34:00,50.8,44.8,29.58,SSE,158,7.2,11.6,80,0.05,,,0.58,WUHU216HW,2013-03-20 20:34:00,
2013-03-20 13:39:00,50.9,44.3,29.58,SSE,158,11.6,11.6,78,0.05,,,0.58,WUHU216HW,2013-03-20 20:39:00,
2013-03-20 13:44:00,50.8,44.1,29.59,South,180,6.7,11.6,78,0.04,,,0.58,WUHU216HW,2013-03-20 20:44:00,
2013-03-20 13:50:00,50.8,44.1,29.59,SE,135,11.2,13.2,78,0.03,,,0.58,WUHU216HW,2013-03-20 20:50:00,
2013-03-20 13:55:00,50.9,44.0,29.59,South,180,8.1,16.6,77,0.02,,,0.58,WUHU216HW,2013-03-20 20:55:00,
2013-03-20 14:00:00,51.1,44.2,29.59,SE,135,8.3,16.6,77,0.01,,,0.58,WUHU216HW,2013-03-20 21:00:00,
2013-03-20 14:05:00,51.1,44.2,29.59,SE,135,8.3,15.7,77,0.01,,,0.58,WUHU216HW,2013-03-20 21:05:00,
2013-03-20 14:10:00,51.1,43.8,29.59,SE,135,6.9,12.1,76,0.00,,,0.58,WUHU216HW,2013-03-20 21:10:00,
2013-03-20 14:15:00,51.1,43.5,29.60,South,180,7.4,12.1,75,0.00,,,0.58,WUHU216HW,2013-03-20 21:15:00,
2013-03-20 14:20:00,51.1,43.8,29.60,ESE,113,4.3,17.2,76,0.00,,,0.58,WUHU216HW,2013-03-20 21:20:00,
2013-03-20 14:25:00,51.5,44.2,29.59,ESE,113,1.6,17.2,76,0.00,,,0.58,WUHU216HW,2013-03-20 21:25:00,